createdAt,value
2018-09-08T00:00:58.521Z,10.75
2018-09-08T00:01:58.504Z,10.71
2018-09-08T00:02:58.513Z,10.82
2018-09-08T00:03:58.707Z,10.90
2018-09-08T00:04:58.502Z,10.82
2018-09-08T00:05:58.704Z,10.79
2018-09-08T00:06:58.513Z,10.74
2018-09-08T00:07:58.512Z,10.57
2018-09-08T00:08:58.510Z,10.64
2018-09-08T00:09:58.506Z,10.64
2018-09-08T00:10:58.704Z,10.61
2018-09-08T00:11:58.508Z,10.59
2018-09-08T00:12:58.496Z,10.59
2018-09-08T00:13:58.490Z,10.68
2018-09-08T00:14:58.709Z,10.74
2018-09-08T00:15:58.504Z,10.67
2018-09-08T00:16:58.501Z,10.54
2018-09-08T00:17:58.490Z,10.59
2018-09-08T00:18:58.488Z,10.41
2018-09-08T00:19:58.691Z,10.44
2018-09-08T00:20:58.707Z,10.33
2018-09-08T00:21:58.491Z,10.25
2018-09-08T00:22:58.690Z,10.26
2018-09-08T00:23:58.497Z,10.26
2018-09-08T00:24:58.486Z,10.20
2018-09-08T00:25:58.484Z,10.26
2018-09-08T00:26:58.492Z,10.26
2018-09-08T00:27:58.509Z,10.26
2018-09-08T00:28:58.683Z,10.22
2018-09-08T00:29:58.496Z,10.10
2018-09-08T00:30:58.479Z,10.15
2018-09-08T00:31:58.692Z,10.12
2018-09-08T00:32:58.489Z,10.10
2018-09-08T00:33:58.477Z,10.07
2018-09-08T00:34:58.474Z,9.98
2018-09-08T00:35:58.490Z,9.89
2018-09-08T00:36:58.692Z,9.86
2018-09-08T00:37:58.473Z,9.87
2018-09-08T00:38:58.496Z,9.87
2018-09-08T00:39:58.501Z,9.91
2018-09-08T00:40:58.685Z,9.87
2018-09-08T00:41:58.470Z,9.79
2018-09-08T00:42:58.484Z,9.84
2018-09-08T00:43:58.670Z,9.80
2018-09-08T00:44:58.669Z,9.80
2018-09-08T00:45:58.648Z,9.76
2018-09-08T00:46:58.480Z,9.84
2018-09-08T00:47:58.473Z,9.99
2018-09-08T00:48:58.474Z,10.12
2018-09-08T00:49:58.480Z,10.12
2018-09-08T00:50:58.477Z,10.19
2018-09-08T00:51:58.487Z,10.25
2018-09-08T00:52:58.480Z,10.28
2018-09-08T00:53:58.662Z,10.34
2018-09-08T00:54:58.482Z,10.49
2018-09-08T00:55:58.459Z,10.40
2018-09-08T00:56:58.470Z,10.48
2018-09-08T00:57:58.454Z,10.53
2018-09-08T00:58:58.454Z,10.49
2018-09-08T00:59:58.479Z,10.56
2018-09-08T01:00:58.450Z,10.56
2018-09-08T01:01:58.463Z,10.51
2018-09-08T01:02:58.453Z,10.54
2018-09-08T01:03:58.450Z,10.41
2018-09-08T01:04:58.459Z,10.46
2018-09-08T01:05:58.661Z,10.46
2018-09-08T01:06:58.471Z,10.28
2018-09-08T01:07:58.460Z,10.28
2018-09-08T01:08:58.445Z,10.23
2018-09-08T01:09:58.445Z,10.13
2018-09-08T01:10:58.458Z,10.10
2018-09-08T01:11:58.441Z,10.17
2018-09-08T01:12:58.455Z,10.12
2018-09-08T01:13:58.450Z,10.23
2018-09-08T01:14:58.469Z,10.25
2018-09-08T01:15:58.449Z,10.22
2018-09-08T01:16:58.452Z,10.28
2018-09-08T01:17:58.453Z,10.15
2018-09-08T01:18:58.437Z,10.13
2018-09-08T01:19:58.464Z,10.12
2018-09-08T01:20:58.433Z,10.10
2018-09-08T01:21:58.458Z,10.15
2018-09-08T01:22:58.633Z,10.17
2018-09-08T01:23:58.431Z,10.23
2018-09-08T01:24:58.434Z,10.26
2018-09-08T01:25:58.645Z,10.30
2018-09-08T01:26:58.452Z,10.25
2018-09-08T01:27:58.425Z,10.23
2018-09-08T01:28:58.429Z,10.20
2018-09-08T01:29:58.637Z,10.12
2018-09-08T01:30:58.439Z,10.22
2018-09-08T01:31:58.421Z,10.22
2018-09-08T01:32:58.432Z,10.16
2018-09-08T01:33:58.419Z,10.16
2018-09-08T01:34:58.420Z,9.99
2018-09-08T01:35:58.650Z,10.07
2018-09-08T01:36:58.429Z,10.17
2018-09-08T01:37:58.646Z,9.97
2018-09-08T01:38:58.620Z,9.95
2018-09-08T01:39:58.429Z,9.97
2018-09-08T01:40:58.415Z,9.98
2018-09-08T01:41:58.414Z,9.98
2018-09-08T01:42:58.434Z,9.99
2018-09-08T01:43:58.428Z,10.15
2018-09-08T01:44:58.436Z,10.07
2018-09-08T01:45:58.414Z,10.04
2018-09-08T01:46:58.419Z,10.09
2018-09-08T01:47:58.422Z,10.17
2018-09-08T01:48:58.407Z,10.13
2018-09-08T01:49:58.624Z,10.13
2018-09-08T01:50:58.416Z,10.17
2018-09-08T01:51:58.415Z,10.17
2018-09-08T01:52:58.425Z,10.15
2018-09-08T01:53:58.409Z,10.25
2018-09-08T01:54:58.414Z,10.16
2018-09-08T01:55:58.614Z,10.23
2018-09-08T01:56:58.615Z,10.17
2018-09-08T01:57:58.409Z,10.26
2018-09-08T01:58:58.406Z,10.13
2018-09-08T01:59:58.405Z,10.13
2018-09-08T02:00:58.419Z,10.23
2018-09-08T02:01:58.610Z,10.16
2018-09-08T02:02:58.390Z,10.17
2018-09-08T02:03:58.406Z,10.15
2018-09-08T02:04:58.391Z,10.02
2018-09-08T02:05:58.413Z,9.95
2018-09-08T02:06:58.388Z,9.92
2018-09-08T02:07:58.398Z,9.89
2018-09-08T02:08:58.402Z,9.86
2018-09-08T02:09:58.384Z,9.89
2018-09-08T02:10:58.405Z,9.84
2018-09-08T02:11:58.390Z,9.82
2018-09-08T02:12:58.380Z,9.76
2018-09-08T02:13:58.583Z,9.73
2018-09-08T02:14:58.393Z,9.76
2018-09-08T02:15:58.387Z,9.69
2018-09-08T02:16:58.387Z,9.72
2018-09-08T02:17:58.374Z,9.69
2018-09-08T02:18:58.379Z,9.69
2018-09-08T02:19:58.375Z,9.74
2018-09-08T02:20:58.588Z,9.74
2018-09-08T02:21:58.583Z,9.73
2018-09-08T02:22:58.368Z,9.65
2018-09-08T02:23:58.370Z,9.69
2018-09-08T02:24:58.367Z,9.73
2018-09-08T02:25:58.380Z,9.62
2018-09-08T02:26:58.365Z,9.62
2018-09-08T02:27:58.365Z,9.58
2018-09-08T02:28:58.362Z,9.61
2018-09-08T02:29:58.386Z,9.62
2018-09-08T02:30:58.359Z,9.56
2018-09-08T02:31:58.361Z,9.59
2018-09-08T02:32:58.564Z,9.54
2018-09-08T02:33:58.558Z,9.58
2018-09-08T02:34:58.354Z,9.56
2018-09-08T02:35:58.556Z,9.50
2018-09-08T02:36:58.355Z,9.56
2018-09-08T02:37:58.351Z,9.47
2018-09-08T02:38:58.551Z,9.44
2018-09-08T02:39:58.347Z,9.58
2018-09-08T02:40:58.549Z,9.61
2018-09-08T02:41:58.552Z,9.69
2018-09-08T02:42:58.345Z,9.68
2018-09-08T02:43:58.346Z,9.64
2018-09-08T02:44:58.547Z,9.72
2018-09-08T02:45:58.352Z,9.69
2018-09-08T02:46:58.339Z,9.84
2018-09-08T02:47:58.541Z,9.79
2018-09-08T02:48:58.336Z,9.76
2018-09-08T02:49:58.334Z,9.76
2018-09-08T02:50:58.348Z,9.77
2018-09-08T02:51:58.337Z,9.69
2018-09-08T02:52:58.332Z,9.74
2018-09-08T02:53:58.542Z,9.73
2018-09-08T02:54:58.329Z,9.68
2018-09-08T02:55:58.350Z,9.69
2018-09-08T02:56:58.327Z,9.69
2018-09-08T02:57:58.325Z,9.73
2018-09-08T02:58:58.347Z,9.69
2018-09-08T02:59:58.523Z,9.68
2018-09-08T03:00:58.523Z,9.73
2018-09-08T03:01:58.318Z,9.74
2018-09-08T03:02:58.318Z,9.72
2018-09-08T03:03:58.532Z,9.80
2018-09-08T03:04:58.321Z,9.76
2018-09-08T03:05:58.538Z,9.80
2018-09-08T03:06:58.529Z,9.86
2018-09-08T03:07:58.311Z,9.86
2018-09-08T03:08:58.315Z,9.91
2018-09-08T03:09:58.306Z,10.01
2018-09-08T03:10:58.318Z,9.97
2018-09-08T03:11:58.522Z,9.94
2018-09-08T03:12:58.335Z,10.02
2018-09-08T03:13:58.312Z,10.07
2018-09-08T03:14:58.312Z,10.13
2018-09-08T03:15:58.308Z,10.10
2018-09-08T03:16:58.302Z,10.25
2018-09-08T03:17:58.502Z,10.17
2018-09-08T03:18:58.310Z,10.33
2018-09-08T03:19:58.316Z,10.33
2018-09-08T03:20:58.308Z,10.35
2018-09-08T03:21:58.295Z,10.41
2018-09-08T03:22:58.291Z,10.38
2018-09-08T03:23:58.493Z,10.51
2018-09-08T03:24:58.290Z,10.48
2018-09-08T03:25:58.492Z,10.54
2018-09-08T03:26:58.305Z,10.49
2018-09-08T03:27:58.289Z,10.67
2018-09-08T03:28:58.507Z,10.69
2018-09-08T03:29:58.283Z,10.67
2018-09-08T03:30:58.295Z,10.74
2018-09-08T03:31:58.312Z,10.75
2018-09-08T03:32:58.333Z,10.84
2018-09-08T03:33:58.296Z,10.84
2018-09-08T03:34:58.292Z,10.81
2018-09-08T03:35:58.293Z,10.71
2018-09-08T03:36:58.288Z,10.68
2018-09-08T03:37:58.291Z,10.76
2018-09-08T03:38:58.278Z,10.76
2018-09-08T03:39:58.273Z,10.71
2018-09-08T03:40:58.475Z,10.72
2018-09-08T03:41:58.286Z,10.74
2018-09-08T03:42:58.281Z,10.71
2018-09-08T03:43:58.270Z,10.74
2018-09-08T03:44:58.270Z,10.74
2018-09-08T03:45:58.282Z,10.75
2018-09-08T03:46:58.482Z,10.75
2018-09-08T03:47:58.280Z,10.72
2018-09-08T03:48:58.295Z,10.82
2018-09-08T03:49:58.279Z,10.82
2018-09-08T03:50:58.274Z,10.82
2018-09-08T03:51:58.286Z,10.86
2018-09-08T03:52:58.263Z,10.89
2018-09-08T03:53:58.464Z,10.99
2018-09-08T03:54:58.273Z,10.93
2018-09-08T03:55:58.273Z,11.00
2018-09-08T03:56:58.274Z,11.04
2018-09-08T03:57:58.463Z,11.05
2018-09-08T03:58:58.582Z,11.05
2018-09-08T03:59:58.268Z,10.96
2018-09-08T04:00:58.254Z,10.92
2018-09-08T04:01:58.255Z,10.92
2018-09-08T04:02:58.479Z,10.92
2018-09-08T04:03:58.270Z,10.84
2018-09-08T04:04:58.253Z,10.86
2018-09-08T04:05:58.470Z,10.96
2018-09-08T04:06:58.258Z,10.96
2018-09-08T04:07:58.249Z,10.92
2018-09-08T04:08:58.466Z,10.93
2018-09-08T04:09:58.251Z,10.97
2018-09-08T04:10:58.270Z,10.97
2018-09-08T04:11:58.262Z,10.93
2018-09-08T04:12:58.449Z,10.99
2018-09-08T04:13:58.269Z,11.07
2018-09-08T04:14:58.255Z,11.05
2018-09-08T04:15:58.241Z,11.12
2018-09-08T04:16:58.275Z,11.11
2018-09-08T04:17:58.259Z,11.10
2018-09-08T04:18:58.241Z,11.05
2018-09-08T04:19:58.237Z,11.08
2018-09-08T04:20:58.458Z,11.08
2018-09-08T04:21:58.235Z,11.02
2018-09-08T04:22:58.238Z,11.10
2018-09-08T04:23:58.285Z,11.12
2018-09-08T04:24:58.236Z,11.11
2018-09-08T04:25:58.452Z,11.08
2018-09-08T04:26:58.249Z,11.07
2018-09-08T04:27:58.434Z,11.08
2018-09-08T04:28:58.448Z,11.11
2018-09-08T04:29:58.454Z,11.08
2018-09-08T04:30:58.230Z,11.04
2018-09-08T04:31:58.253Z,11.04
2018-09-08T04:32:58.256Z,10.97
2018-09-08T04:33:58.244Z,11.02
2018-09-08T04:34:58.229Z,11.00
2018-09-08T04:35:58.240Z,10.93
2018-09-08T04:36:58.240Z,10.92
2018-09-08T04:37:58.440Z,10.92
2018-09-08T04:38:58.237Z,10.78
2018-09-08T04:39:58.227Z,10.68
2018-09-08T04:40:58.262Z,10.64
2018-09-08T04:41:58.244Z,10.56
2018-09-08T04:42:58.446Z,10.54
2018-09-08T04:43:58.448Z,10.68
2018-09-08T04:44:58.434Z,10.68
2018-09-08T04:45:58.243Z,10.74
2018-09-08T04:46:58.435Z,10.60
2018-09-08T04:47:58.217Z,10.64
2018-09-08T04:48:58.423Z,10.68
2018-09-08T04:49:58.226Z,10.72
2018-09-08T04:50:58.229Z,10.61
2018-09-08T04:51:58.242Z,10.51
2018-09-08T04:52:58.232Z,10.64
2018-09-08T04:53:58.214Z,10.72
2018-09-08T04:54:58.424Z,10.68
2018-09-08T04:55:58.234Z,10.60
2018-09-08T04:56:58.235Z,10.75
2018-09-08T04:57:58.231Z,10.69
2018-09-08T04:58:58.409Z,10.68
2018-09-08T04:59:58.218Z,10.69
2018-09-08T05:00:58.222Z,10.72
2018-09-08T05:01:58.219Z,10.69
2018-09-08T05:02:58.216Z,10.68
2018-09-08T05:03:58.205Z,10.64
2018-09-08T05:04:58.218Z,10.53
2018-09-08T05:05:58.224Z,10.49
2018-09-08T05:06:58.212Z,10.61
2018-09-08T05:07:58.404Z,10.57
2018-09-08T05:08:58.278Z,10.54
2018-09-08T05:09:58.200Z,10.57
2018-09-08T05:10:58.214Z,10.69
2018-09-08T05:11:58.206Z,10.61
2018-09-08T05:12:58.420Z,10.75
2018-09-08T05:13:58.418Z,10.71
2018-09-08T05:14:58.204Z,10.81
2018-09-08T05:15:58.411Z,10.82
2018-09-08T05:16:58.204Z,10.86
2018-09-08T05:17:58.200Z,10.87
2018-09-08T05:18:58.205Z,10.87
2018-09-08T05:19:58.192Z,10.96
2018-09-08T05:20:58.391Z,10.93
2018-09-08T05:21:58.199Z,10.93
2018-09-08T05:22:58.189Z,10.96
2018-09-08T05:23:58.202Z,11.04
2018-09-08T05:24:58.187Z,10.94
2018-09-08T05:25:58.185Z,11.00
2018-09-08T05:26:58.184Z,11.02
2018-09-08T05:27:58.198Z,11.08
2018-09-08T05:28:58.199Z,11.00
2018-09-08T05:29:58.180Z,11.18
2018-09-08T05:30:58.387Z,11.11
2018-09-08T05:31:58.382Z,11.04
2018-09-08T05:32:58.178Z,11.05
2018-09-08T05:33:58.179Z,11.08
2018-09-08T05:34:58.186Z,11.05
2018-09-08T05:35:58.175Z,11.12
2018-09-08T05:36:58.377Z,11.17
2018-09-08T05:37:58.377Z,11.17
2018-09-08T05:38:58.174Z,11.17
2018-09-08T05:39:58.172Z,11.17
2018-09-08T05:40:58.172Z,11.23
2018-09-08T05:41:58.171Z,11.30
2018-09-08T05:42:58.243Z,11.32
2018-09-08T05:43:58.170Z,11.27
2018-09-08T05:44:58.172Z,11.19
2018-09-08T05:45:58.381Z,11.25
2018-09-08T05:46:58.190Z,11.33
2018-09-08T05:47:58.165Z,11.23
2018-09-08T05:48:58.244Z,11.23
2018-09-08T05:49:58.370Z,11.25
2018-09-08T05:50:58.175Z,11.17
2018-09-08T05:51:58.367Z,11.14
2018-09-08T05:52:58.162Z,11.15
2018-09-08T05:53:58.165Z,11.26
2018-09-08T05:54:58.364Z,11.18
2018-09-08T05:55:58.160Z,11.27
2018-09-08T05:56:58.158Z,11.23
2018-09-08T05:57:58.173Z,11.35
2018-09-08T05:58:58.157Z,11.35
2018-09-08T05:59:58.374Z,11.35
2018-09-08T06:00:58.373Z,11.40
2018-09-08T06:01:58.155Z,11.44
2018-09-08T06:02:58.154Z,11.41
2018-09-08T06:03:58.152Z,11.50
2018-09-08T06:04:58.169Z,11.48
2018-09-08T06:05:58.153Z,11.51
2018-09-08T06:06:58.150Z,11.51
2018-09-08T06:07:58.156Z,11.47
2018-09-08T06:08:58.353Z,11.55
2018-09-08T06:09:58.158Z,11.60
2018-09-08T06:10:58.351Z,11.63
2018-09-08T06:11:58.161Z,11.68
2018-09-08T06:12:58.163Z,11.68
2018-09-08T06:13:58.157Z,11.70
2018-09-08T06:14:58.145Z,11.83
2018-09-08T06:15:58.155Z,11.75
2018-09-08T06:16:58.145Z,11.84
2018-09-08T06:17:58.157Z,11.87
2018-09-08T06:18:58.153Z,11.78
2018-09-08T06:19:58.147Z,11.88
2018-09-08T06:20:58.143Z,11.87
2018-09-08T06:21:58.143Z,11.88
2018-09-08T06:22:58.164Z,11.84
2018-09-08T06:23:58.143Z,11.83
2018-09-08T06:24:58.141Z,11.95
2018-09-08T06:25:58.142Z,11.84
2018-09-08T06:26:58.154Z,12.03
2018-09-08T06:27:58.155Z,11.94
2018-09-08T06:28:58.145Z,11.95
2018-09-08T06:29:58.153Z,12.13
2018-09-08T06:30:58.148Z,12.07
2018-09-08T06:31:58.139Z,12.13
2018-09-08T06:32:58.135Z,12.15
2018-09-08T06:33:58.206Z,12.21
2018-09-08T06:34:58.161Z,12.27
2018-09-08T06:35:58.148Z,12.32
2018-09-08T06:36:58.151Z,12.22
2018-09-08T06:37:58.336Z,12.31
2018-09-08T06:38:58.346Z,12.24
2018-09-08T06:39:58.340Z,12.27
2018-09-08T06:40:58.147Z,12.29
2018-09-08T06:41:58.144Z,12.32
2018-09-08T06:42:58.150Z,12.43
2018-09-08T06:43:58.146Z,12.36
2018-09-08T06:44:58.265Z,12.49
2018-09-08T06:45:58.134Z,12.55
2018-09-08T06:46:58.334Z,12.58
2018-09-08T06:47:58.354Z,12.64
2018-09-08T06:48:58.132Z,12.68
2018-09-08T06:49:58.130Z,12.73
2018-09-08T06:50:58.133Z,12.75
2018-09-08T06:51:58.132Z,12.82
2018-09-08T06:52:58.141Z,12.91
2018-09-08T06:53:58.141Z,12.85
2018-09-08T06:54:58.161Z,12.90
2018-09-08T06:55:58.146Z,12.93
2018-09-08T06:56:58.144Z,12.95
2018-09-08T06:57:58.186Z,13.12
2018-09-08T06:58:58.141Z,13.09
2018-09-08T06:59:58.131Z,13.20
2018-09-08T07:00:58.155Z,13.18
2018-09-08T07:01:58.132Z,13.31
2018-09-08T07:02:58.140Z,13.25
2018-09-08T07:03:58.345Z,13.35
2018-09-08T07:04:58.129Z,13.41
2018-09-08T07:05:58.155Z,13.30
2018-09-08T07:06:58.127Z,13.42
2018-09-08T07:07:58.156Z,13.44
2018-09-08T07:08:58.142Z,13.57
2018-09-08T07:09:58.144Z,13.57
2018-09-08T07:10:58.127Z,13.68
2018-09-08T07:11:58.127Z,13.72
2018-09-08T07:12:58.125Z,13.67
2018-09-08T07:13:58.132Z,13.71
2018-09-08T07:14:58.156Z,13.78
2018-09-08T07:15:58.130Z,13.75
2018-09-08T07:16:58.127Z,13.89
2018-09-08T07:17:58.128Z,13.87
2018-09-08T07:18:58.125Z,14.04
2018-09-08T07:19:58.140Z,13.96
2018-09-08T07:20:58.171Z,14.03
2018-09-08T07:21:58.128Z,14.14
2018-09-08T07:22:58.341Z,14.20
2018-09-08T07:23:58.129Z,14.15
2018-09-08T07:24:58.194Z,14.32
2018-09-08T07:25:58.128Z,14.45
2018-09-08T07:26:58.125Z,14.37
2018-09-08T07:27:58.157Z,14.37
2018-09-08T07:28:58.157Z,14.47
2018-09-08T07:29:58.130Z,14.37
2018-09-08T07:30:58.180Z,14.32
2018-09-08T07:31:58.150Z,14.35
2018-09-08T07:32:58.153Z,14.28
2018-09-08T07:33:58.142Z,14.37
2018-09-08T07:34:58.129Z,14.43
2018-09-08T07:35:58.129Z,14.32
2018-09-08T07:36:58.140Z,14.45
2018-09-08T07:37:58.330Z,14.41
2018-09-08T07:38:58.131Z,14.50
2018-09-08T07:39:58.153Z,14.50
2018-09-08T07:40:58.133Z,14.53
2018-09-08T07:41:58.129Z,14.50
2018-09-08T07:42:58.137Z,14.65
2018-09-08T07:43:58.168Z,14.62
2018-09-08T07:44:58.145Z,14.69
2018-09-08T07:45:58.155Z,14.65
2018-09-08T07:46:58.150Z,14.78
2018-09-08T07:47:58.150Z,14.72
2018-09-08T07:48:58.145Z,14.79
2018-09-08T07:49:58.137Z,14.86
2018-09-08T07:50:58.191Z,14.92
2018-09-08T07:51:58.182Z,14.99
2018-09-08T07:52:58.195Z,15.14
2018-09-08T07:53:58.242Z,15.25
2018-09-08T07:54:58.140Z,15.40
2018-09-08T07:55:58.151Z,15.36
2018-09-08T07:56:58.161Z,15.52
2018-09-08T07:57:58.174Z,15.72
2018-09-08T07:58:58.155Z,15.80
2018-09-08T07:59:58.188Z,15.77
2018-09-08T08:00:58.148Z,15.76
2018-09-08T08:01:58.175Z,15.67
2018-09-08T08:02:58.143Z,15.76
2018-09-08T08:03:58.145Z,15.62
2018-09-08T08:04:58.142Z,15.67
2018-09-08T08:05:58.160Z,15.61
2018-09-08T08:06:58.157Z,15.58
2018-09-08T08:07:58.187Z,15.51
2018-09-08T08:08:58.160Z,15.54
2018-09-08T08:09:58.150Z,15.49
2018-09-08T08:10:58.174Z,15.49
2018-09-08T08:11:58.151Z,15.51
2018-09-08T08:12:58.149Z,15.55
2018-09-08T08:13:58.175Z,15.65
2018-09-08T08:14:58.162Z,15.64
2018-09-08T08:15:58.161Z,15.65
2018-09-08T08:16:58.152Z,15.75
2018-09-08T08:17:58.152Z,15.70
2018-09-08T08:18:58.152Z,15.80
2018-09-08T08:19:58.173Z,15.90
2018-09-08T08:20:58.165Z,15.84
2018-09-08T08:21:58.157Z,15.91
2018-09-08T08:22:58.158Z,15.86
2018-09-08T08:23:58.162Z,15.91
2018-09-08T08:24:58.179Z,15.88
2018-09-08T08:25:58.170Z,15.82
2018-09-08T08:26:58.161Z,15.88
2018-09-08T08:27:58.163Z,15.83
2018-09-08T08:28:58.163Z,15.84
2018-09-08T08:29:58.163Z,15.92
2018-09-08T08:30:58.172Z,15.90
2018-09-08T08:31:58.167Z,15.79
2018-09-08T08:32:58.168Z,15.92
2018-09-08T08:33:58.371Z,15.88
2018-09-08T08:34:58.180Z,15.80
2018-09-08T08:35:58.181Z,15.94
2018-09-08T08:36:58.181Z,15.88
2018-09-08T08:37:58.388Z,16.01
2018-09-08T08:38:58.173Z,15.97
2018-09-08T08:39:58.184Z,15.97
2018-09-08T08:40:58.178Z,16.08
2018-09-08T08:41:58.190Z,16.09
2018-09-08T08:42:58.179Z,16.20
2018-09-08T08:43:58.181Z,16.16
2018-09-08T08:44:58.385Z,16.13
2018-09-08T08:45:58.194Z,16.17
2018-09-08T08:46:58.180Z,16.20
2018-09-08T08:47:58.185Z,16.20
2018-09-08T08:48:58.195Z,16.26
2018-09-08T08:49:58.186Z,16.26
2018-09-08T08:50:58.196Z,16.17
2018-09-08T08:51:58.388Z,16.32
2018-09-08T08:52:58.209Z,16.32
2018-09-08T08:53:58.205Z,16.42
2018-09-08T08:54:58.210Z,16.49
2018-09-08T08:55:58.205Z,16.43
2018-09-08T08:56:58.412Z,16.51
2018-09-08T08:57:58.213Z,16.78
2018-09-08T08:58:58.209Z,16.68
2018-09-08T08:59:58.194Z,16.93
2018-09-08T09:00:58.206Z,16.91
2018-09-08T09:01:58.216Z,17.01
2018-09-08T09:02:58.198Z,16.97
2018-09-08T09:03:58.210Z,17.04
2018-09-08T09:04:58.205Z,17.05
2018-09-08T09:05:58.202Z,17.05
2018-09-08T09:06:58.711Z,17.12
2018-09-08T09:07:58.205Z,17.22
2018-09-08T09:08:58.216Z,17.20
2018-09-08T09:09:58.234Z,17.26
2018-09-08T09:10:58.221Z,17.24
2018-09-08T09:11:58.221Z,17.38
2018-09-08T09:12:58.352Z,17.23
2018-09-08T09:13:58.223Z,17.27
2018-09-08T09:14:58.224Z,17.11
2018-09-08T09:15:58.215Z,17.11
2018-09-08T09:16:58.214Z,17.09
2018-09-08T09:17:58.417Z,16.99
2018-09-08T09:18:58.572Z,16.89
2018-09-08T09:19:58.217Z,16.96
2018-09-08T09:20:58.230Z,16.81
2018-09-08T09:21:58.433Z,16.78
2018-09-08T09:22:58.231Z,16.81
2018-09-08T09:23:58.501Z,16.71
2018-09-08T09:24:58.280Z,16.75
2018-09-08T09:25:58.223Z,16.71
2018-09-08T09:26:58.224Z,16.71
2018-09-08T09:27:58.256Z,16.66
2018-09-08T09:28:58.235Z,16.78
2018-09-08T09:29:58.238Z,16.72
2018-09-08T09:30:58.228Z,16.76
2018-09-08T09:31:58.245Z,16.87
2018-09-08T09:32:58.233Z,17.02
2018-09-08T09:33:58.246Z,16.99
2018-09-08T09:34:58.239Z,17.08
2018-09-08T09:35:58.242Z,17.09
2018-09-08T09:36:58.255Z,17.19
2018-09-08T09:37:58.251Z,17.30
2018-09-08T09:38:58.238Z,17.30
2018-09-08T09:39:58.243Z,17.27
2018-09-08T09:40:58.240Z,17.24
2018-09-08T09:41:58.253Z,17.39
2018-09-08T09:42:58.245Z,17.38
2018-09-08T09:43:58.257Z,17.36
2018-09-08T09:44:58.245Z,17.49
2018-09-08T09:45:58.251Z,17.63
2018-09-08T09:46:58.457Z,17.74
2018-09-08T09:47:58.455Z,17.78
2018-09-08T09:48:58.264Z,17.85
2018-09-08T09:49:58.253Z,17.95
2018-09-08T09:50:58.256Z,18.00
2018-09-08T09:51:58.257Z,17.95
2018-09-08T09:52:58.267Z,17.98
2018-09-08T09:53:58.260Z,18.05
2018-09-08T09:54:58.258Z,18.00
2018-09-08T09:55:58.461Z,17.98
2018-09-08T09:56:58.273Z,17.86
2018-09-08T09:57:58.263Z,17.90
2018-09-08T09:58:58.468Z,17.74
2018-09-08T09:59:58.264Z,17.74
2018-09-08T10:00:58.306Z,17.63
2018-09-08T10:01:58.482Z,17.64
2018-09-08T10:02:58.280Z,17.64
2018-09-08T10:03:58.270Z,17.65
2018-09-08T10:04:58.302Z,17.57
2018-09-08T10:05:58.272Z,17.65
2018-09-08T10:06:58.488Z,17.48
2018-09-08T10:07:58.477Z,17.57
2018-09-08T10:08:58.489Z,17.56
2018-09-08T10:09:58.280Z,17.60
2018-09-08T10:10:58.292Z,17.60
2018-09-08T10:11:58.297Z,17.67
2018-09-08T10:12:58.293Z,17.72
2018-09-08T10:13:58.285Z,17.80
2018-09-08T10:14:58.296Z,17.74
2018-09-08T10:15:58.288Z,17.80
2018-09-08T10:16:58.491Z,17.85
2018-09-08T10:17:58.304Z,17.78
2018-09-08T10:18:58.498Z,17.71
2018-09-08T10:19:58.306Z,17.71
2018-09-08T10:20:58.307Z,17.71
2018-09-08T10:21:58.296Z,17.92
2018-09-08T10:22:58.330Z,17.95
2018-09-08T10:24:05.157Z,18.01
2018-09-08T10:24:58.314Z,17.98
2018-09-08T10:25:58.313Z,17.97
2018-09-08T10:26:58.505Z,18.05
2018-09-08T10:27:58.331Z,18.01
2018-09-08T10:28:58.305Z,17.89
2018-09-08T10:29:58.631Z,17.97
2018-09-08T10:30:58.319Z,17.87
2018-09-08T10:31:58.321Z,17.79
2018-09-08T10:32:58.314Z,17.80
2018-09-08T10:33:58.323Z,17.76
2018-09-08T10:34:58.335Z,17.68
2018-09-08T10:35:58.319Z,17.72
2018-09-08T10:36:58.323Z,17.79
2018-09-08T10:37:58.347Z,17.80
2018-09-08T10:38:58.368Z,17.82
2018-09-08T10:39:58.333Z,17.92
2018-09-08T10:40:58.325Z,17.97
2018-09-08T10:41:58.324Z,17.95
2018-09-08T10:42:58.326Z,17.98
2018-09-08T10:43:58.338Z,18.00
2018-09-08T10:44:58.331Z,18.04
2018-09-08T10:45:58.383Z,17.98
2018-09-08T10:46:58.347Z,18.03
2018-09-08T10:47:58.335Z,18.05
2018-09-08T10:48:58.335Z,17.97
2018-09-08T10:49:58.335Z,17.98
2018-09-08T10:50:58.408Z,18.04
2018-09-08T10:51:58.344Z,18.16
2018-09-08T10:52:58.363Z,18.08
2018-09-08T10:53:58.345Z,18.16
2018-09-08T10:54:58.347Z,18.08
2018-09-08T10:55:58.359Z,18.16
2018-09-08T10:56:58.362Z,18.10
2018-09-08T10:57:58.385Z,18.19
2018-09-08T10:58:58.350Z,18.11
2018-09-08T10:59:58.369Z,18.18
2018-09-08T11:00:58.356Z,18.18
2018-09-08T11:01:58.531Z,18.19
2018-09-08T11:02:58.357Z,18.11
2018-09-08T11:03:58.361Z,18.16
2018-09-08T11:04:58.359Z,18.13
2018-09-08T11:05:58.369Z,18.19
2018-09-08T11:06:58.380Z,18.20
2018-09-08T11:07:58.373Z,18.28
2018-09-08T11:08:58.391Z,18.19
2018-09-08T11:09:58.368Z,18.26
2018-09-08T11:10:58.386Z,18.25
2018-09-08T11:11:58.370Z,18.11
2018-09-08T11:12:58.371Z,18.04
2018-09-08T11:13:58.373Z,17.95
2018-09-08T11:14:58.424Z,17.90
2018-09-08T11:15:58.374Z,17.87
2018-09-08T11:16:58.387Z,17.72
2018-09-08T11:17:58.377Z,17.65
2018-09-08T11:18:58.380Z,17.63
2018-09-08T11:19:58.392Z,17.51
2018-09-08T11:20:58.383Z,17.54
2018-09-08T11:21:58.384Z,17.63
2018-09-08T11:22:58.388Z,17.70
2018-09-08T11:23:58.386Z,17.65
2018-09-08T11:24:58.387Z,17.71
2018-09-08T11:25:58.400Z,17.79
2018-09-08T11:26:58.400Z,17.85
2018-09-08T11:27:58.440Z,17.94
2018-09-08T11:28:58.402Z,18.03
2018-09-08T11:29:58.394Z,17.95
2018-09-08T11:30:58.409Z,18.01
2018-09-08T11:31:58.418Z,18.13
2018-09-08T11:32:58.402Z,18.11
2018-09-08T11:33:58.399Z,18.18
2018-09-08T11:34:58.414Z,18.20
2018-09-08T11:35:58.401Z,18.22
2018-09-08T11:36:58.412Z,18.29
2018-09-08T11:37:58.412Z,18.13
2018-09-08T11:38:58.409Z,18.13
2018-09-08T11:39:58.416Z,18.22
2018-09-08T11:40:58.409Z,18.13
2018-09-08T11:41:58.408Z,18.16
2018-09-08T11:42:58.423Z,17.98
2018-09-08T11:43:58.412Z,18.01
2018-09-08T11:44:58.794Z,18.10
2018-09-08T11:45:58.416Z,18.16
2018-09-08T11:46:58.417Z,18.23
2018-09-08T11:47:58.432Z,18.34
2018-09-08T11:48:58.429Z,18.23
2018-09-08T11:49:58.430Z,18.31
2018-09-08T11:50:58.430Z,18.35
2018-09-08T11:51:58.435Z,18.38
2018-09-08T11:52:58.484Z,18.45
2018-09-08T11:53:58.455Z,18.44
2018-09-08T11:54:58.467Z,18.58
2018-09-08T11:55:58.460Z,18.55
2018-09-08T11:56:58.431Z,18.62
2018-09-08T11:57:58.433Z,18.58
2018-09-08T11:58:58.460Z,18.58
2018-09-08T11:59:58.437Z,18.63
2018-09-08T12:00:58.439Z,18.60
2018-09-08T12:01:58.451Z,18.68
2018-09-08T12:02:58.446Z,18.52
2018-09-08T12:03:58.452Z,18.59
2018-09-08T12:04:58.443Z,18.44
2018-09-08T12:05:58.449Z,18.43
2018-09-08T12:06:58.459Z,18.35
2018-09-08T12:07:58.498Z,18.33
2018-09-08T12:08:58.451Z,18.31
2018-09-08T12:09:58.466Z,18.29
2018-09-08T12:10:58.453Z,18.28
2018-09-08T12:11:58.458Z,18.29
2018-09-08T12:12:58.467Z,18.34
2018-09-08T12:13:58.475Z,18.29
2018-09-08T12:14:58.464Z,18.33
2018-09-08T12:15:58.463Z,18.44
2018-09-08T12:16:58.468Z,18.34
2018-09-08T12:17:58.464Z,18.50
2018-09-08T12:18:58.473Z,18.47
2018-09-08T12:19:58.479Z,18.44
2018-09-08T12:20:58.473Z,18.47
2018-09-08T12:21:58.489Z,18.49
2018-09-08T12:22:58.475Z,18.62
2018-09-08T12:23:58.476Z,18.56
2018-09-08T12:24:58.518Z,18.62
2018-09-08T12:25:58.482Z,18.60
2018-09-08T12:26:58.482Z,18.70
2018-09-08T12:27:58.563Z,18.59
2018-09-08T12:28:58.512Z,18.59
2018-09-08T12:29:58.487Z,18.53
2018-09-08T12:30:58.542Z,18.65
2018-09-08T12:31:58.507Z,18.66
2018-09-08T12:32:58.563Z,18.59
2018-09-08T12:33:58.495Z,18.63
2018-09-08T12:34:58.499Z,18.63
2018-09-08T12:35:58.499Z,18.65
2018-09-08T12:36:58.569Z,18.63
2018-09-08T12:37:58.523Z,18.62
2018-09-08T12:38:58.643Z,18.53
2018-09-08T12:39:58.518Z,18.60
2018-09-08T12:40:58.512Z,18.63
2018-09-08T12:41:58.509Z,18.63
2018-09-08T12:42:58.513Z,18.65
2018-09-08T12:43:58.531Z,18.74
2018-09-08T12:44:58.546Z,18.65
2018-09-08T12:45:58.815Z,18.68
2018-09-08T12:46:58.547Z,18.59
2018-09-08T12:47:58.532Z,18.71
2018-09-08T12:48:58.541Z,18.71
2018-09-08T12:49:58.540Z,18.66
2018-09-08T12:50:58.526Z,18.60
2018-09-08T12:51:58.757Z,18.65
2018-09-08T12:52:58.542Z,18.65
2018-09-08T12:53:58.533Z,18.71
2018-09-08T12:54:58.538Z,18.77
2018-09-08T12:55:58.550Z,18.83